createdAt,value
2023-05-19T00:02:47.187Z,20.91
2023-05-19T00:05:53.929Z,21.02
2023-05-19T00:08:58.782Z,20.82
2023-05-19T00:12:02.176Z,20.72
2023-05-19T00:15:07.333Z,20.66
2023-05-19T00:18:10.201Z,20.75
2023-05-19T00:21:13.027Z,20.54
2023-05-19T00:24:15.857Z,20.43
2023-05-19T00:27:18.733Z,20.34
2023-05-19T00:30:23.899Z,20.35
2023-05-19T00:33:26.655Z,20.26
2023-05-19T00:36:31.134Z,20.32
2023-05-19T00:39:33.968Z,20.24
2023-05-19T00:42:36.885Z,21.13
2023-05-19T00:45:41.393Z,22.92
2023-05-19T00:48:45.685Z,23.20
2023-05-19T00:51:51.798Z,23.27
2023-05-19T00:54:54.794Z,23.33
2023-05-19T00:57:58.019Z,23.38
2023-05-19T01:01:04.168Z,23.42
2023-05-19T01:04:10.139Z,23.50
2023-05-19T01:07:13.271Z,23.50
2023-05-19T01:10:16.123Z,23.56
2023-05-19T01:13:18.966Z,23.63
2023-05-19T01:16:27.525Z,23.66
2023-05-19T01:19:38.841Z,23.72
2023-05-19T01:22:50.719Z,23.71
2023-05-19T01:26:14.315Z,23.77
2023-05-19T01:29:29.276Z,23.77
2023-05-19T01:32:34.832Z,23.77
2023-05-19T01:35:38.145Z,23.79
2023-05-19T01:38:41.322Z,23.80
2023-05-19T01:41:45.706Z,23.76
2023-05-19T01:44:48.652Z,23.79
2023-05-19T01:47:55.715Z,23.83
2023-05-19T01:50:58.600Z,23.88
2023-05-19T01:54:01.554Z,23.88
2023-05-19T01:57:08.889Z,23.88
2023-05-19T02:00:15.769Z,23.90
2023-05-19T02:03:27.750Z,23.91
2023-05-19T02:06:33.958Z,23.91
2023-05-19T02:09:41.097Z,23.94
2023-05-19T02:12:44.844Z,23.94
2023-05-19T02:15:48.514Z,23.95
2023-05-19T02:18:54.078Z,23.97
2023-05-19T02:21:57.480Z,23.99
2023-05-19T02:25:00.416Z,23.99
2023-05-19T02:28:03.417Z,24.02
2023-05-19T02:31:09.014Z,24.02
2023-05-19T02:34:13.307Z,24.03
2023-05-19T02:37:16.712Z,24.06
2023-05-19T02:40:19.530Z,24.10
2023-05-19T02:43:22.328Z,24.09
2023-05-19T02:46:25.525Z,24.09
2023-05-19T02:49:31.056Z,24.11
2023-05-19T02:52:33.826Z,24.17
2023-05-19T02:55:36.689Z,24.16
2023-05-19T02:58:39.571Z,24.18
2023-05-19T03:01:42.392Z,24.21
2023-05-19T03:04:46.568Z,24.20
2023-05-19T03:07:49.429Z,24.21
2023-05-19T03:10:52.255Z,24.25
2023-05-19T03:13:55.075Z,24.22
2023-05-19T03:16:57.928Z,24.27
2023-05-19T03:20:02.915Z,24.27
2023-05-19T03:23:05.712Z,24.26
2023-05-19T03:26:08.486Z,24.27
2023-05-19T03:29:11.521Z,24.29
2023-05-19T03:32:14.394Z,24.29
2023-05-19T03:35:18.709Z,24.31
2023-05-19T03:38:21.578Z,24.36
2023-05-19T03:41:24.498Z,24.39
2023-05-19T03:44:27.235Z,24.47
2023-05-19T03:47:31.791Z,24.47
2023-05-19T03:50:38.217Z,24.51
2023-05-19T03:53:41.291Z,24.50
2023-05-19T03:56:44.603Z,24.52
2023-05-19T03:59:47.434Z,24.58
2023-05-19T04:02:50.354Z,24.62
2023-05-19T04:05:54.595Z,24.67
2023-05-19T04:08:57.590Z,24.66
2023-05-19T04:12:00.406Z,24.68
2023-05-19T04:15:03.371Z,24.68
2023-05-19T04:18:06.288Z,24.72
2023-05-19T04:21:10.573Z,24.76
2023-05-19T04:24:13.445Z,24.82
2023-05-19T04:27:17.895Z,24.82
2023-05-19T04:30:22.701Z,24.87
2023-05-19T04:33:25.653Z,24.91
2023-05-19T04:36:29.827Z,24.97
2023-05-19T04:39:32.645Z,25.00
2023-05-19T04:42:35.467Z,25.03
2023-05-19T04:45:42.527Z,25.05
2023-05-19T04:48:45.651Z,25.06
2023-05-19T04:51:53.370Z,25.12
2023-05-19T04:54:58.484Z,25.13
2023-05-19T04:58:01.326Z,25.19
2023-05-19T05:01:04.517Z,25.20
2023-05-19T05:04:07.670Z,25.23
2023-05-19T05:07:11.914Z,25.23
2023-05-19T05:10:14.690Z,25.27
2023-05-19T05:13:17.760Z,25.31
2023-05-19T05:16:20.901Z,25.33
2023-05-19T05:19:24.144Z,25.32
2023-05-19T05:22:28.681Z,25.36
2023-05-19T05:25:31.997Z,25.35
2023-05-19T05:28:34.950Z,25.38
2023-05-19T05:31:38.125Z,25.40
2023-05-19T05:34:42.084Z,25.39
2023-05-19T05:37:46.324Z,25.42
2023-05-19T05:40:49.103Z,25.42
2023-05-19T05:43:51.957Z,25.43
2023-05-19T05:46:55.055Z,25.46
2023-05-19T05:49:58.159Z,25.43
2023-05-19T05:53:02.894Z,25.47
2023-05-19T05:56:06.199Z,25.49
2023-05-19T05:59:08.978Z,25.54
2023-05-19T06:02:11.927Z,25.54
2023-05-19T06:05:14.826Z,25.51
2023-05-19T06:08:19.232Z,25.51
2023-05-19T06:11:22.100Z,25.55
2023-05-19T06:14:24.912Z,25.52
2023-05-19T06:17:27.785Z,25.60
2023-05-19T06:20:30.944Z,25.60
2023-05-19T06:23:35.712Z,25.58
2023-05-19T06:26:38.516Z,25.57
2023-05-19T06:29:41.354Z,25.57
2023-05-19T06:32:44.209Z,25.60
2023-05-19T06:35:47.040Z,25.58
2023-05-19T06:38:51.235Z,25.58
2023-05-19T06:41:54.041Z,25.61
2023-05-19T06:44:56.848Z,25.63
2023-05-19T06:47:59.750Z,25.66
2023-05-19T06:51:02.636Z,25.65
2023-05-19T06:54:06.782Z,25.68
2023-05-19T06:57:09.631Z,25.68
2023-05-19T07:00:15.856Z,25.69
2023-05-19T07:03:20.855Z,25.67
2023-05-19T07:06:23.967Z,25.68
2023-05-19T07:09:28.197Z,25.72
2023-05-19T07:12:31.052Z,25.72
2023-05-19T07:15:33.869Z,25.75
2023-05-19T07:18:36.692Z,25.76
2023-05-19T07:21:39.515Z,25.77
2023-05-19T07:24:43.739Z,25.80
2023-05-19T07:27:46.822Z,25.81
2023-05-19T07:30:50.027Z,25.79
2023-05-19T07:33:54.641Z,25.78
2023-05-19T07:36:57.752Z,25.82
2023-05-19T07:40:01.922Z,25.82
2023-05-19T07:43:04.754Z,25.82
2023-05-19T07:46:08.125Z,25.83
2023-05-19T07:49:11.036Z,25.84
2023-05-19T07:52:13.845Z,25.83
2023-05-19T07:55:19.306Z,25.83
2023-05-19T07:58:22.088Z,25.84
2023-05-19T08:01:24.842Z,25.84
2023-05-19T08:04:27.964Z,25.87
2023-05-19T08:07:30.845Z,25.89
2023-05-19T08:10:35.275Z,25.89
2023-05-19T08:13:49.620Z,25.90
2023-05-19T08:16:52.420Z,25.93
2023-05-19T08:19:55.285Z,25.92
2023-05-19T08:22:58.075Z,25.93
2023-05-19T08:26:02.538Z,25.94
2023-05-19T08:29:05.430Z,26.00
2023-05-19T08:32:10.327Z,25.95
2023-05-19T08:35:14.344Z,25.99
2023-05-19T08:38:17.152Z,25.99
2023-05-19T08:41:21.692Z,25.99
2023-05-19T08:44:24.490Z,26.01
2023-05-19T08:47:28.088Z,26.01
2023-05-19T08:50:32.347Z,26.02
2023-05-19T08:53:37.945Z,26.10
2023-05-19T08:56:43.581Z,26.19
2023-05-19T08:59:46.568Z,26.09
2023-05-19T09:02:59.944Z,26.10
2023-05-19T09:06:09.586Z,26.11
2023-05-19T09:09:12.470Z,26.11
2023-05-19T09:12:16.599Z,26.12
2023-05-19T09:15:20.345Z,26.14
2023-05-19T09:18:25.111Z,26.06
2023-05-19T09:21:31.610Z,26.21
2023-05-19T09:24:35.259Z,26.13
2023-05-19T09:27:39.474Z,26.11
2023-05-19T09:30:42.353Z,26.10
2023-05-19T09:33:46.295Z,26.13
2023-05-19T09:36:50.866Z,26.14
2023-05-19T09:39:54.355Z,26.15
2023-05-19T09:42:58.565Z,26.13
2023-05-19T09:46:01.952Z,26.14
2023-05-19T09:49:09.978Z,26.15
2023-05-19T09:52:16.314Z,26.16
2023-05-19T09:55:23.236Z,26.12
2023-05-19T09:58:28.111Z,26.15
2023-05-19T10:01:33.806Z,26.15
2023-05-19T10:04:36.918Z,26.14
2023-05-19T10:07:40.710Z,26.16
2023-05-19T10:10:43.600Z,26.19
2023-05-19T10:13:48.393Z,26.18
2023-05-19T10:16:52.174Z,26.22
2023-05-19T10:19:56.017Z,26.19
2023-05-19T10:22:58.765Z,26.16
2023-05-19T10:26:04.213Z,26.17
2023-05-19T10:29:08.883Z,26.18
2023-05-19T10:32:12.936Z,26.17
2023-05-19T10:35:21.688Z,26.16
2023-05-19T10:38:28.858Z,26.17
2023-05-19T10:41:39.347Z,26.17
2023-05-19T10:44:47.713Z,26.23
2023-05-19T10:47:51.791Z,26.18
2023-05-19T10:50:55.496Z,26.21
2023-05-19T10:53:58.969Z,26.18
2023-05-19T10:57:01.798Z,26.18
2023-05-19T11:00:11.803Z,26.18
2023-05-19T11:03:15.181Z,26.20
2023-05-19T11:06:21.767Z,26.24
2023-05-19T11:09:37.882Z,26.22
2023-05-19T11:12:44.085Z,26.24
2023-05-19T11:15:49.957Z,26.19
2023-05-19T11:18:55.153Z,26.16
2023-05-19T11:21:58.718Z,26.19
2023-05-19T11:25:01.701Z,26.11
2023-05-19T11:28:04.671Z,26.11
2023-05-19T11:31:10.544Z,26.12
2023-05-19T11:34:14.016Z,26.15
2023-05-19T11:37:16.880Z,26.11
2023-05-19T11:40:19.704Z,26.10
2023-05-19T11:43:24.272Z,26.14
2023-05-19T11:46:28.610Z,26.15
2023-05-19T11:49:31.561Z,26.15
2023-05-19T11:52:35.297Z,26.13
2023-05-19T11:55:43.515Z,26.14
2023-05-19T11:58:54.669Z,26.17
2023-05-19T12:01:59.710Z,26.16
2023-05-19T12:05:02.527Z,26.16
2023-05-19T12:08:05.510Z,26.20
2023-05-19T12:11:08.328Z,26.06
2023-05-19T12:14:11.765Z,25.83
2023-05-19T12:17:16.659Z,25.80
2023-05-19T12:20:20.314Z,25.91
2023-05-19T12:23:24.679Z,26.06
2023-05-19T12:26:27.538Z,26.19
2023-05-19T12:29:30.597Z,26.19
2023-05-19T12:32:35.266Z,26.21
2023-05-19T12:35:38.604Z,26.22
2023-05-19T12:38:42.425Z,26.19
2023-05-19T12:41:46.107Z,26.19
2023-05-19T12:44:50.176Z,26.21
2023-05-19T12:47:54.433Z,26.20
2023-05-19T12:50:57.694Z,26.20
2023-05-19T12:54:03.470Z,26.26
2023-05-19T12:57:06.911Z,26.38
2023-05-19T13:00:15.045Z,26.34
2023-05-19T13:03:20.094Z,26.48
2023-05-19T13:06:23.174Z,26.46
2023-05-19T13:09:26.054Z,26.40
2023-05-19T13:12:29.181Z,26.38
2023-05-19T13:15:35.312Z,26.37
2023-05-19T13:18:39.783Z,26.54
2023-05-19T13:21:42.595Z,26.47
2023-05-19T13:24:45.353Z,26.45
2023-05-19T13:27:48.644Z,26.46
2023-05-19T13:30:52.237Z,26.51
2023-05-19T13:33:56.574Z,26.48
2023-05-19T13:36:59.509Z,26.56
2023-05-19T13:40:02.384Z,26.61
2023-05-19T13:43:05.417Z,26.60
2023-05-19T13:46:08.241Z,26.63
2023-05-19T13:49:12.464Z,26.63
2023-05-19T13:52:15.231Z,26.58
2023-05-19T13:55:18.108Z,26.62
2023-05-19T13:58:20.867Z,26.56
2023-05-19T14:01:23.653Z,26.59
2023-05-19T14:04:28.245Z,26.62
2023-05-19T14:07:31.277Z,26.61
2023-05-19T14:10:34.151Z,26.73
2023-05-19T14:13:40.950Z,26.71
2023-05-19T14:16:45.496Z,26.77
2023-05-19T14:19:49.659Z,26.78
2023-05-19T14:22:52.409Z,26.75
2023-05-19T14:25:55.170Z,26.72
2023-05-19T14:28:58.118Z,26.74
2023-05-19T14:32:01.077Z,26.82
2023-05-19T14:35:06.081Z,26.77
2023-05-19T14:38:08.831Z,26.77
2023-05-19T14:41:11.792Z,26.76
2023-05-19T14:44:14.546Z,26.80
2023-05-19T14:47:17.339Z,26.82
2023-05-19T14:50:21.597Z,26.82
2023-05-19T14:53:24.451Z,26.83
2023-05-19T14:56:27.202Z,26.88
2023-05-19T14:59:30.336Z,26.80
2023-05-19T15:02:33.241Z,26.84
2023-05-19T15:05:37.556Z,26.81
2023-05-19T15:08:41.127Z,26.80
2023-05-19T15:11:43.864Z,26.83
2023-05-19T15:14:46.681Z,26.86
2023-05-19T15:17:49.527Z,26.86
2023-05-19T15:20:53.684Z,26.62
2023-05-19T15:23:56.473Z,26.62
2023-05-19T15:26:59.321Z,26.73
2023-05-19T15:30:02.119Z,26.51
2023-05-19T15:33:05.014Z,26.52
2023-05-19T15:36:09.419Z,26.57
2023-05-19T15:39:12.109Z,26.54
2023-05-19T15:42:14.794Z,26.45
2023-05-19T15:45:17.483Z,26.29
2023-05-19T15:48:20.227Z,26.19
2023-05-19T15:51:24.793Z,26.07
2023-05-19T15:54:27.607Z,26.12
2023-05-19T15:57:30.393Z,25.94
2023-05-19T16:00:33.405Z,25.99
2023-05-19T16:03:36.391Z,25.90
2023-05-19T16:06:40.510Z,25.80
2023-05-19T16:09:43.311Z,25.78
2023-05-19T16:12:46.140Z,25.76
2023-05-19T16:15:48.898Z,25.86
2023-05-19T16:18:51.653Z,25.75
2023-05-19T16:21:55.806Z,25.78
2023-05-19T16:24:58.548Z,25.65
2023-05-19T16:28:01.306Z,25.61
2023-05-19T16:31:04.039Z,25.60
2023-05-19T16:34:06.798Z,25.49
2023-05-19T16:37:10.852Z,25.44
2023-05-19T16:40:13.909Z,25.27
2023-05-19T16:43:16.696Z,25.18
2023-05-19T16:46:19.476Z,24.97
2023-05-19T16:49:22.265Z,24.85
2023-05-19T16:52:26.310Z,24.83
2023-05-19T16:55:29.090Z,24.80
2023-05-19T16:58:31.866Z,24.70
2023-05-19T17:01:34.707Z,24.52
2023-05-19T17:04:37.510Z,24.56
2023-05-19T17:07:41.631Z,24.43
2023-05-19T17:10:44.876Z,24.39
2023-05-19T17:13:47.626Z,24.32
2023-05-19T17:16:52.474Z,24.25
2023-05-19T17:19:55.255Z,24.24
2023-05-19T17:23:08.497Z,24.10
2023-05-19T17:26:11.555Z,24.02
2023-05-19T17:29:14.292Z,24.07
2023-05-19T17:32:17.136Z,23.84
2023-05-19T17:35:19.909Z,23.85
2023-05-19T17:38:24.007Z,23.80
2023-05-19T17:41:26.803Z,23.65
2023-05-19T17:44:29.488Z,23.82
2023-05-19T17:47:32.263Z,23.62
2023-05-19T17:50:35.160Z,23.57
2023-05-19T17:53:39.757Z,23.68
2023-05-19T17:56:43.329Z,23.65
2023-05-19T17:59:46.376Z,23.62
2023-05-19T18:02:49.596Z,23.50
2023-05-19T18:05:52.684Z,23.48
2023-05-19T18:08:59.264Z,23.17
2023-05-19T18:12:02.594Z,23.20
2023-05-19T18:15:06.022Z,23.20
2023-05-19T18:18:10.701Z,23.15
2023-05-19T18:21:17.730Z,23.42
2023-05-19T18:24:22.231Z,23.22
2023-05-19T18:27:24.937Z,23.02
2023-05-19T18:30:27.754Z,22.92
2023-05-19T18:33:31.342Z,23.01
2023-05-19T18:36:35.293Z,22.95
2023-05-19T18:39:39.447Z,22.96
2023-05-19T18:42:42.159Z,23.01
2023-05-19T18:45:45.018Z,22.72
2023-05-19T18:48:49.804Z,22.70
2023-05-19T18:51:52.744Z,22.50
2023-05-19T18:54:56.931Z,22.63
2023-05-19T18:57:59.675Z,22.66
2023-05-19T19:01:02.504Z,22.56
2023-05-19T19:04:05.609Z,22.72
2023-05-19T19:07:08.335Z,22.58
2023-05-19T19:10:12.605Z,22.57
2023-05-19T19:13:15.387Z,22.47
2023-05-19T19:16:18.198Z,22.50
2023-05-19T19:19:23.812Z,22.53
2023-05-19T19:22:26.705Z,22.47
2023-05-19T19:25:30.811Z,22.41
2023-05-19T19:28:33.591Z,22.48
2023-05-19T19:31:36.423Z,22.43
2023-05-19T19:34:39.196Z,22.34
2023-05-19T19:37:42.015Z,22.39
2023-05-19T19:40:46.139Z,22.33
2023-05-19T19:43:48.853Z,22.33
2023-05-19T19:46:51.995Z,22.22
2023-05-19T19:49:54.872Z,22.25
2023-05-19T19:52:57.780Z,22.11
2023-05-19T19:56:02.431Z,21.99
2023-05-19T19:59:05.159Z,21.98
2023-05-19T20:02:08.087Z,21.96
2023-05-19T20:05:11.934Z,21.82
2023-05-19T20:08:16.016Z,21.90
2023-05-19T20:11:22.892Z,21.82
2023-05-19T20:14:25.637Z,21.74
2023-05-19T20:17:28.476Z,21.67
2023-05-19T20:20:31.444Z,21.65
2023-05-19T20:23:35.406Z,21.54
2023-05-19T20:26:39.583Z,21.59
2023-05-19T20:29:42.535Z,21.59
2023-05-19T20:32:46.559Z,21.57
2023-05-19T20:35:49.474Z,22.08
2023-05-19T20:38:53.099Z,22.64
2023-05-19T20:41:57.312Z,22.52
2023-05-19T20:45:00.555Z,22.64
2023-05-19T20:48:03.843Z,22.56
2023-05-19T20:51:06.940Z,22.50
2023-05-19T20:54:10.016Z,22.65
2023-05-19T20:57:14.336Z,22.40
2023-05-19T21:00:17.404Z,22.16
2023-05-19T21:03:21.524Z,22.17
2023-05-19T21:06:26.271Z,22.09
2023-05-19T21:09:29.032Z,22.09
2023-05-19T21:12:34.402Z,22.11
2023-05-19T21:15:37.226Z,21.96
2023-05-19T21:18:40.054Z,21.81
2023-05-19T21:21:44.819Z,21.70
2023-05-19T21:24:47.522Z,21.56
2023-05-19T21:27:51.758Z,21.77
2023-05-19T21:30:54.449Z,21.87
2023-05-19T21:33:57.268Z,21.89
2023-05-19T21:37:00.064Z,21.84
2023-05-19T21:40:02.853Z,21.85
2023-05-19T21:43:07.124Z,21.83
2023-05-19T21:46:09.856Z,21.75
2023-05-19T21:49:12.606Z,21.75
2023-05-19T21:52:15.574Z,21.70
2023-05-19T21:55:18.388Z,21.58
2023-05-19T21:58:22.825Z,21.88
2023-05-19T22:01:25.848Z,21.89
2023-05-19T22:04:31.505Z,21.59
2023-05-19T22:07:34.257Z,21.71
2023-05-19T22:10:37.392Z,22.00
2023-05-19T22:13:41.634Z,21.75
2023-05-19T22:16:44.663Z,21.66
2023-05-19T22:19:47.619Z,21.58
2023-05-19T22:22:50.368Z,21.66
2023-05-19T22:25:53.113Z,21.87
2023-05-19T22:28:57.514Z,21.67
2023-05-19T22:32:00.248Z,21.50
2023-05-19T22:35:03.038Z,21.61
2023-05-19T22:38:06.496Z,21.49
2023-05-19T22:41:11.172Z,21.30
2023-05-19T22:44:16.335Z,21.45
2023-05-19T22:47:19.190Z,21.26
2023-05-19T22:50:22.145Z,21.25
2023-05-19T22:53:24.903Z,21.44
2023-05-19T22:56:27.818Z,21.44
2023-05-19T22:59:31.981Z,21.40
2023-05-19T23:02:34.812Z,21.45
2023-05-19T23:05:37.678Z,21.48
2023-05-19T23:08:40.503Z,21.49
2023-05-19T23:11:43.207Z,21.43
2023-05-19T23:14:47.473Z,21.59
2023-05-19T23:17:50.222Z,21.53
2023-05-19T23:20:53.004Z,21.69
2023-05-19T23:23:55.953Z,21.68
2023-05-19T23:26:58.791Z,21.44
2023-05-19T23:30:03.088Z,21.66
2023-05-19T23:33:05.993Z,21.69
2023-05-19T23:36:09.780Z,21.57
2023-05-19T23:39:12.820Z,21.34
2023-05-19T23:42:15.588Z,21.34
2023-05-19T23:45:19.761Z,21.34
2023-05-19T23:48:22.519Z,21.36
2023-05-19T23:51:25.317Z,21.16
2023-05-19T23:54:30.273Z,21.34
2023-05-19T23:57:33.039Z,21.34
